Time;durP1;ratioP1;P1;durP2;ratioP2;P2;SDS_P1;SDS_P2;PMS_P1;PMS_P2;Temp;Humidity;BMP_temperature;BMP_pressure;BME280_temperature;BME280_humidity;BME280_pressure;Samples;Min_cycle;Max_cycle;Signal;HPM_P1;HPM_P2
2021/09/22 00:00:49;;;;;;;;;39.33;30.00;;;;;;;;5085171;27;45563;-78
2021/09/22 00:03:14;;;;;;;;;38.00;33.00;;;;;;;;5089720;27;46015;-76
2021/09/22 00:05:40;;;;;;;;;44.33;34.67;;;;;;;;5088902;27;45304;-76
2021/09/22 00:08:05;;;;;;;;;30.75;28.00;;;;;;;;5088888;27;45405;-78
2021/09/22 00:10:30;;;;;;;;;35.00;29.33;;;;;;;;5090939;27;45403;-78
2021/09/22 00:12:55;;;;;;;;;35.50;29.50;;;;;;;;5083486;27;46100;-78
2021/09/22 00:15:22;;;;;;;;;37.75;30.25;;;;;;;;5090092;27;45569;-78
2021/09/22 00:17:48;;;;;;;;;40.00;31.75;;;;;;;;5088494;27;45738;-78
2021/09/22 00:20:14;;;;;;;;;37.25;30.25;;;;;;;;5088594;27;45784;-77
2021/09/22 00:22:39;;;;;;;;;39.00;32.00;;;;;;;;5091985;27;46406;-78
2021/09/22 00:25:05;;;;;;;;;36.25;32.00;;;;;;;;5088386;27;45403;-77
2021/09/22 00:27:31;;;;;;;;;42.00;30.75;;;;;;;;5088117;27;45447;-77
2021/09/22 00:29:58;;;;;;;;;34.33;32.00;;;;;;;;5084700;27;45519;-78
2021/09/22 00:32:23;;;;;;;;;40.00;33.00;;;;;;;;5088847;27;46118;-78
2021/09/22 00:34:48;;;;;;;;;32.75;29.25;;;;;;;;5090857;27;45556;-78
2021/09/22 00:37:14;;;;;;;;;37.33;31.00;;;;;;;;5089797;27;45350;-78
2021/09/22 00:39:39;;;;;;;;;36.00;30.33;;;;;;;;5088261;27;45291;-77
2021/09/22 00:42:05;;;;;;;;;35.67;32.00;;;;;;;;5087469;27;45965;-77
2021/09/22 00:44:30;;;;;;;;;33.75;29.00;;;;;;;;5087657;27;46167;-77
2021/09/22 00:46:56;;;;;;;;;37.25;35.00;;;;;;;;5090469;27;45831;-78
2021/09/22 00:49:21;;;;;;;;;37.75;32.50;;;;;;;;5102436;27;45493;-76
2021/09/22 00:51:46;;;;;;;;;35.75;30.25;;;;;;;;5089439;27;45634;-78
2021/09/22 00:54:14;;;;;;;;;37.67;32.33;;;;;;;;5084309;27;49113;-78
2021/09/22 00:56:40;;;;;;;;;39.00;31.75;;;;;;;;5088753;27;45529;-78
2021/09/22 00:59:05;;;;;;;;;33.33;31.00;;;;;;;;5083112;27;45518;-78
2021/09/22 01:01:31;;;;;;;;;33.75;30.75;;;;;;;;5089848;27;45674;-78
2021/09/22 01:04:00;;;;;;;;;41.75;32.75;;;;;;;;5094225;27;46316;-78
2021/09/22 01:06:25;;;;;;;;;43.50;33.00;;;;;;;;5088966;27;45649;-78
2021/09/22 01:08:52;;;;;;;;;46.67;35.33;;;;;;;;5107382;27;45490;-78
2021/09/22 01:11:17;;;;;;;;;38.00;32.00;;;;;;;;5089364;27;45605;-78
2021/09/22 01:13:42;;;;;;;;;35.50;31.50;;;;;;;;5095054;27;45517;-78
2021/09/22 01:16:08;;;;;;;;;38.00;32.33;;;;;;;;5088772;27;45793;-78
2021/09/22 01:18:34;;;;;;;;;32.75;30.00;;;;;;;;5090565;27;45475;-78
2021/09/22 01:20:59;;;;;;;;;36.00;31.50;;;;;;;;5092544;27;46223;-78
2021/09/22 01:23:26;;;;;;;;;36.00;29.25;;;;;;;;5090791;27;45746;-78
2021/09/22 01:25:52;;;;;;;;;38.00;30.25;;;;;;;;5094189;27;45535;-78
2021/09/22 01:28:18;;;;;;;;;38.75;29.50;;;;;;;;5094281;27;45637;-78
2021/09/22 01:30:44;;;;;;;;;34.75;31.75;;;;;;;;5089683;27;47061;-78
2021/09/22 01:33:10;;;;;;;;;38.00;33.00;;;;;;;;5091427;27;45578;-78
2021/09/22 01:35:37;;;;;;;;;36.75;32.75;;;;;;;;5090872;27;45470;-78
2021/09/22 01:38:07;;;;;;;;;39.50;34.25;;;;;;;;5090862;27;45606;-78
2021/09/22 01:40:32;;;;;;;;;35.50;31.00;;;;;;;;5093250;27;46286;-78
2021/09/22 01:42:57;;;;;;;;;34.75;31.00;;;;;;;;5091529;27;45452;-78
2021/09/22 01:45:23;;;;;;;;;34.50;32.00;;;;;;;;5089283;27;46321;-78
2021/09/22 01:47:48;;;;;;;;;41.33;30.33;;;;;;;;5090725;27;45491;-77
2021/09/22 01:50:22;;;;;;;;;37.67;32.00;;;;;;;;5087661;27;46891;-78
2021/09/22 01:52:52;;;;;;;;;41.25;32.75;;;;;;;;5089651;27;45873;-78
2021/09/22 01:55:21;;;;;;;;;45.00;31.25;;;;;;;;5093112;27;45504;-77
2021/09/22 01:57:47;;;;;;;;;39.00;32.25;;;;;;;;5088373;27;45568;-78
2021/09/22 02:00:12;;;;;;;;;36.50;32.25;;;;;;;;5087195;27;45647;-78
2021/09/22 02:02:38;;;;;;;;;36.25;32.00;;;;;;;;5085049;27;45505;-78
2021/09/22 02:05:03;;;;;;;;;37.75;31.25;;;;;;;;5088897;27;45355;-78
2021/09/22 02:07:29;;;;;;;;;34.50;29.75;;;;;;;;5092839;27;45511;-78
2021/09/22 02:09:54;;;;;;;;;39.25;31.25;;;;;;;;5088074;27;47486;-78
2021/09/22 02:12:19;;;;;;;;;37.75;31.00;;;;;;;;5091329;27;45635;-78
2021/09/22 02:14:44;;;;;;;;;38.33;29.00;;;;;;;;5090388;27;45544;-78
2021/09/22 02:17:10;;;;;;;;;40.33;30.67;;;;;;;;5088236;27;45573;-78
2021/09/22 02:19:35;;;;;;;;;39.00;32.75;;;;;;;;5082004;27;46385;-78
2021/09/22 02:22:00;;;;;;;;;34.00;31.00;;;;;;;;5089360;27;45419;-78
2021/09/22 02:24:25;;;;;;;;;35.00;29.33;;;;;;;;5089416;27;45514;-78
2021/09/22 02:26:52;;;;;;;;;30.00;29.00;;;;;;;;5091097;27;45546;-78
2021/09/22 02:29:18;;;;;;;;;36.50;30.25;;;;;;;;5090257;27;45580;-78
2021/09/22 02:31:44;;;;;;;;;34.50;31.00;;;;;;;;5091431;27;45904;-78
2021/09/22 02:34:09;;;;;;;;;39.67;31.00;;;;;;;;5091713;27;45640;-78
2021/09/22 02:36:34;;;;;;;;;33.00;28.33;;;;;;;;5089873;27;45457;-78
2021/09/22 02:38:59;;;;;;;;;39.67;29.33;;;;;;;;5088929;27;45474;-77
2021/09/22 02:41:24;;;;;;;;;38.00;32.00;;;;;;;;5086953;27;45655;-78
2021/09/22 02:43:50;;;;;;;;;36.00;30.67;;;;;;;;5092120;27;45455;-79
2021/09/22 02:46:15;;;;;;;;;39.00;32.00;;;;;;;;5091253;27;45636;-78
2021/09/22 02:48:40;;;;;;;;;34.67;31.33;;;;;;;;5090160;27;46188;-78
2021/09/22 02:51:05;;;;;;;;;38.33;31.00;;;;;;;;5091292;27;45509;-78
2021/09/22 02:53:31;;;;;;;;;37.67;33.00;;;;;;;;5090110;27;45593;-78
2021/09/22 02:55:56;;;;;;;;;41.50;31.50;;;;;;;;5091672;27;46733;-78
2021/09/22 02:58:21;;;;;;;;;41.00;33.00;;;;;;;;5087495;27;45618;-78
2021/09/22 03:00:47;;;;;;;;;34.67;31.00;;;;;;;;5087533;27;45513;-78
2021/09/22 03:03:13;;;;;;;;;35.25;32.00;;;;;;;;5089761;27;45552;-78
2021/09/22 03:05:38;;;;;;;;;45.33;35.33;;;;;;;;5091348;27;45561;-78
2021/09/22 03:08:03;;;;;;;;;41.00;33.00;;;;;;;;5091290;27;46042;-78
2021/09/22 03:10:28;;;;;;;;;40.25;32.75;;;;;;;;5089974;27;45368;-78
2021/09/22 03:12:55;;;;;;;;;45.67;32.00;;;;;;;;5088951;27;45284;-78
2021/09/22 03:15:20;;;;;;;;;38.25;32.75;;;;;;;;5089026;27;45598;-78
2021/09/22 03:17:45;;;;;;;;;40.00;31.25;;;;;;;;5090685;27;46149;-78
2021/09/22 03:20:11;;;;;;;;;39.33;32.67;;;;;;;;5089876;27;45555;-78
2021/09/22 03:22:36;;;;;;;;;39.25;31.75;;;;;;;;5087828;27;45444;-78
2021/09/22 03:25:03;;;;;;;;;39.75;30.75;;;;;;;;5089013;27;45363;-78
2021/09/22 03:27:28;;;;;;;;;41.00;32.50;;;;;;;;5088917;27;48367;-78
2021/09/22 03:29:53;;;;;;;;;40.00;32.33;;;;;;;;5086794;27;45898;-78
2021/09/22 03:32:19;;;;;;;;;38.67;32.00;;;;;;;;5086626;27;45478;-77
2021/09/22 03:34:44;;;;;;;;;38.00;29.67;;;;;;;;5090727;27;45552;-78
2021/09/22 03:37:09;;;;;;;;;37.00;31.33;;;;;;;;5087688;27;46028;-78
2021/09/22 03:39:34;;;;;;;;;37.67;31.00;;;;;;;;5087681;27;45667;-78
2021/09/22 03:42:00;;;;;;;;;43.00;34.50;;;;;;;;5088986;27;45675;-78
2021/09/22 03:44:25;;;;;;;;;41.67;33.00;;;;;;;;5089208;27;45572;-78
2021/09/22 03:46:51;;;;;;;;;37.25;30.00;;;;;;;;5091244;27;50874;-78
2021/09/22 03:49:16;;;;;;;;;41.50;31.25;;;;;;;;5086264;27;45558;-78
2021/09/22 03:51:41;;;;;;;;;42.33;31.00;;;;;;;;5088074;27;45631;-78
2021/09/22 03:54:06;;;;;;;;;46.67;34.33;;;;;;;;5086406;27;45909;-78
2021/09/22 03:56:32;;;;;;;;;43.00;32.67;;;;;;;;5084796;27;46320;-78
2021/09/22 03:58:57;;;;;;;;;46.33;33.67;;;;;;;;5088784;27;45602;-78
2021/09/22 04:01:23;;;;;;;;;45.67;33.67;;;;;;;;5091507;27;45536;-78
2021/09/22 04:03:48;;;;;;;;;43.75;35.00;;;;;;;;5085823;27;45616;-78
2021/09/22 04:06:13;;;;;;;;;37.50;30.50;;;;;;;;5083214;27;45619;-78
2021/09/22 04:08:38;;;;;;;;;31.33;29.33;;;;;;;;5089387;27;45536;-78
2021/09/22 04:11:03;;;;;;;;;39.33;32.33;;;;;;;;5084345;27;45592;-78
2021/09/22 04:13:29;;;;;;;;;40.33;33.00;;;;;;;;5091326;27;45644;-78
2021/09/22 04:15:54;;;;;;;;;42.00;32.67;;;;;;;;5084467;27;46398;-77
2021/09/22 04:18:19;;;;;;;;;42.67;34.00;;;;;;;;5090122;27;45492;-78
2021/09/22 04:20:45;;;;;;;;;38.00;32.00;;;;;;;;5086778;27;45610;-77
2021/09/22 04:23:10;;;;;;;;;41.50;33.50;;;;;;;;5088270;27;45596;-77
2021/09/22 04:25:35;;;;;;;;;31.67;30.00;;;;;;;;5085023;27;45507;-77
2021/09/22 04:28:01;;;;;;;;;38.33;33.00;;;;;;;;5086111;27;45501;-78
2021/09/22 04:30:26;;;;;;;;;39.75;33.00;;;;;;;;5085811;27;45735;-77
2021/09/22 04:32:51;;;;;;;;;45.25;35.50;;;;;;;;5105577;27;45595;-77
2021/09/22 04:35:16;;;;;;;;;40.33;32.67;;;;;;;;5085895;27;45567;-77
2021/09/22 04:37:42;;;;;;;;;41.00;32.00;;;;;;;;5091011;27;45619;-77
2021/09/22 04:40:09;;;;;;;;;40.33;32.33;;;;;;;;5087787;27;45516;-78
2021/09/22 04:42:34;;;;;;;;;39.25;33.75;;;;;;;;5084525;27;45649;-77
2021/09/22 04:45:00;;;;;;;;;42.67;34.67;;;;;;;;5097031;27;47326;-77
2021/09/22 04:47:27;;;;;;;;;45.00;36.50;;;;;;;;5087843;27;45529;-77
2021/09/22 04:49:52;;;;;;;;;42.00;33.00;;;;;;;;5081834;27;45506;-77
2021/09/22 04:52:17;;;;;;;;;46.67;33.67;;;;;;;;5076534;27;45471;-78
2021/09/22 04:54:42;;;;;;;;;39.67;34.33;;;;;;;;5085146;27;45416;-77
2021/09/22 04:57:08;;;;;;;;;41.00;32.00;;;;;;;;5086784;27;45434;-77
2021/09/22 04:59:33;;;;;;;;;44.33;35.00;;;;;;;;5088803;27;45566;-77
2021/09/22 05:01:58;;;;;;;;;40.67;32.00;;;;;;;;5088795;27;45671;-77
2021/09/22 05:04:23;;;;;;;;;39.00;31.33;;;;;;;;5090412;27;46057;-77
2021/09/22 05:06:48;;;;;;;;;37.00;30.00;;;;;;;;5084626;27;45488;-77
2021/09/22 05:09:14;;;;;;;;;37.33;33.67;;;;;;;;5085315;27;45533;-77
2021/09/22 05:11:42;;;;;;;;;38.33;32.33;;;;;;;;5080216;27;46483;-77
2021/09/22 05:14:08;;;;;;;;;40.75;32.50;;;;;;;;5087246;27;48175;-77
2021/09/22 05:16:33;;;;;;;;;39.67;32.00;;;;;;;;5090291;27;45925;-77
2021/09/22 05:18:58;;;;;;;;;35.33;30.00;;;;;;;;5089939;27;45736;-77
2021/09/22 05:21:23;;;;;;;;;38.67;32.00;;;;;;;;5082877;27;45567;-77
2021/09/22 05:23:48;;;;;;;;;38.33;33.33;;;;;;;;5085234;27;46118;-77
2021/09/22 05:26:14;;;;;;;;;41.33;33.00;;;;;;;;5073922;27;45640;-77
2021/09/22 05:28:39;;;;;;;;;44.00;34.33;;;;;;;;5085265;27;45520;-77
2021/09/22 05:31:05;;;;;;;;;36.00;30.67;;;;;;;;5082409;27;45545;-77
2021/09/22 05:33:30;;;;;;;;;32.00;27.50;;;;;;;;5080641;27;45556;-77
2021/09/22 05:35:55;;;;;;;;;39.25;32.75;;;;;;;;5074545;27;45600;-78
2021/09/22 05:38:21;;;;;;;;;39.00;34.33;;;;;;;;5084527;27;45450;-78
2021/09/22 05:40:46;;;;;;;;;44.25;33.50;;;;;;;;5087172;27;45540;-77
2021/09/22 05:43:11;;;;;;;;;47.33;35.33;;;;;;;;5083533;27;46618;-77
2021/09/22 05:45:36;;;;;;;;;40.33;34.33;;;;;;;;5085891;27;45509;-77
2021/09/22 05:48:01;;;;;;;;;39.67;32.33;;;;;;;;5088808;27;45444;-77
2021/09/22 05:50:27;;;;;;;;;43.67;33.67;;;;;;;;5087102;27;45431;-77
2021/09/22 05:52:52;;;;;;;;;43.00;33.25;;;;;;;;5086139;27;45499;-77
2021/09/22 05:55:17;;;;;;;;;44.00;34.00;;;;;;;;5089812;27;45501;-77
2021/09/22 05:57:42;;;;;;;;;42.33;33.00;;;;;;;;5102364;27;45595;-78
2021/09/22 06:00:08;;;;;;;;;42.67;31.00;;;;;;;;5087596;27;45509;-77
2021/09/22 06:02:33;;;;;;;;;44.75;32.75;;;;;;;;5088106;27;46251;-77
2021/09/22 06:04:59;;;;;;;;;41.75;34.75;;;;;;;;5091761;27;45551;-77
2021/09/22 06:07:24;;;;;;;;;39.33;32.00;;;;;;;;5090334;27;45573;-78
2021/09/22 06:09:51;;;;;;;;;47.00;36.00;;;;;;;;5089872;27;45577;-77
2021/09/22 06:12:16;;;;;;;;;40.25;32.25;;;;;;;;5081047;27;45535;-78
2021/09/22 06:14:41;;;;;;;;;37.33;31.00;;;;;;;;5083707;27;46856;-78
2021/09/22 06:17:06;;;;;;;;;44.33;35.00;;;;;;;;5093552;27;45444;-78
2021/09/22 06:19:32;;;;;;;;;45.67;37.00;;;;;;;;5108542;27;45536;-78
2021/09/22 06:21:57;;;;;;;;;42.25;32.50;;;;;;;;5100346;27;46144;-78
2021/09/22 06:24:22;;;;;;;;;40.33;32.67;;;;;;;;5091122;27;47199;-77
2021/09/22 06:26:47;;;;;;;;;44.67;35.33;;;;;;;;5091290;27;45383;-78
2021/09/22 06:29:13;;;;;;;;;37.75;33.00;;;;;;;;5090544;27;45555;-77
2021/09/22 06:31:38;;;;;;;;;44.50;33.75;;;;;;;;5097203;27;45996;-78
2021/09/22 06:34:04;;;;;;;;;42.75;34.00;;;;;;;;5088197;27;45492;-78
2021/09/22 06:36:29;;;;;;;;;40.25;32.25;;;;;;;;5094842;27;45406;-83
2021/09/22 06:38:55;;;;;;;;;44.67;34.33;;;;;;;;5091503;27;45509;-87
2021/09/22 06:41:20;;;;;;;;;50.67;35.00;;;;;;;;5088994;27;45687;-79
2021/09/22 06:43:45;;;;;;;;;36.67;32.33;;;;;;;;5085878;27;45493;-77
2021/09/22 06:46:10;;;;;;;;;44.33;32.00;;;;;;;;5085547;27;45861;-76
2021/09/22 06:48:36;;;;;;;;;39.25;32.25;;;;;;;;5093704;27;45562;-76
2021/09/22 06:51:01;;;;;;;;;39.67;34.00;;;;;;;;5095462;27;46088;-76
2021/09/22 06:53:26;;;;;;;;;45.25;34.50;;;;;;;;5085395;27;45578;-76
2021/09/22 06:55:52;;;;;;;;;43.25;34.50;;;;;;;;5087599;27;45530;-76
2021/09/22 06:58:17;;;;;;;;;46.00;34.00;;;;;;;;5090692;27;45676;-76
2021/09/22 07:00:42;;;;;;;;;42.25;34.00;;;;;;;;5088500;27;45406;-76
2021/09/22 07:03:11;;;;;;;;;48.67;35.67;;;;;;;;5090212;27;45560;-77
2021/09/22 07:05:38;;;;;;;;;44.00;34.00;;;;;;;;5090740;27;45643;-76
2021/09/22 07:08:03;;;;;;;;;44.25;36.00;;;;;;;;5089143;27;45748;-76
2021/09/22 07:10:31;;;;;;;;;44.25;35.50;;;;;;;;5091480;27;46168;-76
2021/09/22 07:12:56;;;;;;;;;36.75;29.00;;;;;;;;5088397;27;45616;-76
2021/09/22 07:15:22;;;;;;;;;45.50;34.75;;;;;;;;5089567;27;45960;-76
2021/09/22 07:17:47;;;;;;;;;49.67;34.67;;;;;;;;5088247;27;45706;-77
2021/09/22 07:20:12;;;;;;;;;44.00;36.00;;;;;;;;5090679;27;46517;-76
2021/09/22 07:22:38;;;;;;;;;41.00;35.75;;;;;;;;5089476;27;45543;-76
2021/09/22 07:25:03;;;;;;;;;42.25;35.75;;;;;;;;5088558;27;45608;-76
2021/09/22 07:27:28;;;;;;;;;45.25;36.00;;;;;;;;5088997;27;45749;-75
2021/09/22 07:29:55;;;;;;;;;42.33;36.00;;;;;;;;5091089;27;46038;-76
2021/09/22 07:32:20;;;;;;;;;40.25;32.50;;;;;;;;5088954;27;45668;-76
2021/09/22 07:34:45;;;;;;;;;38.50;33.50;;;;;;;;5090974;27;45342;-76
2021/09/22 07:37:11;;;;;;;;;42.67;35.33;;;;;;;;5091545;27;45453;-76
2021/09/22 07:39:37;;;;;;;;;46.00;34.00;;;;;;;;5088369;27;45835;-76
2021/09/22 07:42:03;;;;;;;;;40.25;31.00;;;;;;;;5090434;27;45412;-76
2021/09/22 07:44:28;;;;;;;;;35.00;31.00;;;;;;;;5088376;27;45567;-76
2021/09/22 07:46:53;;;;;;;;;37.33;31.33;;;;;;;;5090930;27;45514;-76
2021/09/22 07:49:19;;;;;;;;;40.00;35.00;;;;;;;;5089826;27;46212;-76
2021/09/22 07:51:44;;;;;;;;;42.75;35.00;;;;;;;;5089598;27;45653;-76
2021/09/22 07:54:09;;;;;;;;;40.33;33.33;;;;;;;;5085291;27;45683;-77
2021/09/22 07:56:35;;;;;;;;;35.75;30.00;;;;;;;;5087627;27;45552;-76
2021/09/22 07:59:00;;;;;;;;;40.00;32.50;;;;;;;;5085315;27;46302;-77
2021/09/22 08:01:25;;;;;;;;;43.67;33.33;;;;;;;;5091261;27;45524;-76
2021/09/22 08:03:51;;;;;;;;;36.00;32.33;;;;;;;;5088459;27;45493;-79
2021/09/22 08:06:16;;;;;;;;;36.00;27.33;;;;;;;;5089548;27;45584;-78
2021/09/22 08:08:42;;;;;;;;;39.50;31.00;;;;;;;;5084222;27;46150;-80
2021/09/22 08:11:08;;;;;;;;;39.33;34.00;;;;;;;;5090564;27;45332;-82
2021/09/22 08:13:33;;;;;;;;;43.50;33.50;;;;;;;;5089871;27;45376;-78
2021/09/22 08:15:58;;;;;;;;;38.33;32.00;;;;;;;;5088526;27;45394;-77
2021/09/22 08:18:23;;;;;;;;;38.67;31.33;;;;;;;;5090186;27;46147;-85
2021/09/22 08:20:49;;;;;;;;;40.00;31.67;;;;;;;;5090008;27;49797;-90
2021/09/22 08:23:14;;;;;;;;;41.00;31.33;;;;;;;;5091528;27;45458;-82
2021/09/22 08:25:39;;;;;;;;;40.67;30.67;;;;;;;;5096449;27;45343;-87
2021/09/22 08:28:04;;;;;;;;;37.75;32.50;;;;;;;;5091121;27;45468;-76
2021/09/22 08:30:30;;;;;;;;;40.50;31.50;;;;;;;;5088315;27;45715;-76
2021/09/22 08:32:55;;;;;;;;;42.50;33.75;;;;;;;;5086550;27;46484;-78
2021/09/22 08:35:20;;;;;;;;;44.67;33.67;;;;;;;;5085463;27;45699;-80
2021/09/22 08:37:45;;;;;;;;;37.00;32.67;;;;;;;;5091212;27;45657;-78
2021/09/22 08:40:11;;;;;;;;;48.00;33.67;;;;;;;;5088002;27;45407;-78
2021/09/22 08:42:37;;;;;;;;;48.00;36.00;;;;;;;;5085420;27;45895;-77
2021/09/22 08:45:03;;;;;;;;;44.00;34.75;;;;;;;;5085375;27;45490;-77
2021/09/22 08:47:28;;;;;;;;;50.50;40.50;;;;;;;;5085202;27;46073;-77
2021/09/22 08:49:53;;;;;;;;;52.50;39.00;;;;;;;;5084589;27;45827;-77
2021/09/22 08:52:19;;;;;;;;;47.00;36.33;;;;;;;;5085994;27;45775;-78
2021/09/22 08:54:45;;;;;;;;;49.00;38.25;;;;;;;;5090111;27;45550;-77
2021/09/22 08:57:10;;;;;;;;;43.25;35.75;;;;;;;;5086711;27;45638;-78
2021/09/22 08:59:35;;;;;;;;;37.50;32.00;;;;;;;;5084151;27;45525;-77
2021/09/22 09:02:08;;;;;;;;;35.00;31.00;;;;;;;;5089614;27;45577;-76
2021/09/22 09:04:34;;;;;;;;;44.25;36.00;;;;;;;;5091223;27;45558;-76
2021/09/22 09:06:59;;;;;;;;;45.25;37.50;;;;;;;;5086605;27;46293;-77
2021/09/22 09:09:31;;;;;;;;;43.67;34.33;;;;;;;;5086688;27;45477;-77
2021/09/22 09:11:57;;;;;;;;;49.00;36.75;;;;;;;;5077871;27;45569;-77
2021/09/22 09:14:23;;;;;;;;;48.33;36.67;;;;;;;;5085438;27;45607;-77
2021/09/22 09:16:49;;;;;;;;;51.75;39.25;;;;;;;;5083781;27;45643;-76
2021/09/22 09:19:14;;;;;;;;;46.50;35.00;;;;;;;;5088089;27;45577;-77
2021/09/22 09:21:58;;;;;;;;;36.33;34.00;;;;;;;;5084909;27;45603;-77
2021/09/22 09:24:32;;;;;;;;;38.00;33.25;;;;;;;;5102862;27;45622;-78
2021/09/22 09:26:57;;;;;;;;;38.50;33.50;;;;;;;;5090042;27;45571;-76
2021/09/22 09:29:22;;;;;;;;;35.67;30.67;;;;;;;;5087498;27;45556;-77
2021/09/22 09:31:48;;;;;;;;;35.00;31.67;;;;;;;;5088064;27;45446;-76
2021/09/22 09:34:13;;;;;;;;;41.25;33.25;;;;;;;;5092007;27;45576;-76
2021/09/22 09:36:50;;;;;;;;;41.00;34.00;;;;;;;;5092134;27;45532;-77
2021/09/22 09:39:28;;;;;;;;;38.25;33.00;;;;;;;;5089558;27;45996;-76
2021/09/22 09:41:54;;;;;;;;;34.50;30.50;;;;;;;;5079637;27;45399;-77
2021/09/22 09:44:25;;;;;;;;;37.25;33.00;;;;;;;;5087550;27;45557;-80
2021/09/22 09:46:51;;;;;;;;;39.75;31.25;;;;;;;;5092897;27;46258;-79
2021/09/22 09:49:28;;;;;;;;;45.50;33.75;;;;;;;;5089766;27;46011;-77
2021/09/22 09:51:58;;;;;;;;;44.75;33.75;;;;;;;;5086400;27;45357;-76
2021/09/22 09:54:25;;;;;;;;;42.50;34.50;;;;;;;;5085300;27;45618;-77
2021/09/22 09:56:52;;;;;;;;;47.00;35.00;;;;;;;;5090027;27;46110;-77
2021/09/22 09:59:18;;;;;;;;;37.00;32.75;;;;;;;;5090331;27;45716;-77
2021/09/22 10:01:45;;;;;;;;;37.00;30.75;;;;;;;;5092805;27;45390;-77
2021/09/22 10:04:12;;;;;;;;;36.75;32.25;;;;;;;;5089481;27;45409;-77
2021/09/22 10:06:37;;;;;;;;;39.75;32.50;;;;;;;;5090050;27;45532;-76
2021/09/22 10:09:03;;;;;;;;;38.25;28.75;;;;;;;;5088241;27;46854;-77
2021/09/22 10:11:30;;;;;;;;;38.50;32.50;;;;;;;;5092335;27;45793;-74
2021/09/22 10:13:56;;;;;;;;;42.75;28.25;;;;;;;;5087393;27;45446;-78
2021/09/22 10:16:22;;;;;;;;;30.50;27.75;;;;;;;;5087136;27;45482;-77
2021/09/22 10:18:48;;;;;;;;;36.50;27.50;;;;;;;;5089183;27;45851;-74
2021/09/22 10:21:15;;;;;;;;;34.25;28.75;;;;;;;;5089818;27;45643;-77
2021/09/22 10:23:42;;;;;;;;;33.25;28.00;;;;;;;;5082716;27;45374;-78
2021/09/22 10:26:08;;;;;;;;;30.25;28.75;;;;;;;;5089202;27;45409;-77
2021/09/22 10:28:41;;;;;;;;;36.00;26.25;;;;;;;;5088396;27;45913;-76
2021/09/22 10:31:17;;;;;;;;;31.75;28.50;;;;;;;;5089464;27;45478;-77
2021/09/22 10:33:45;;;;;;;;;25.25;23.50;;;;;;;;5086837;27;45646;-77
2021/09/22 10:36:11;;;;;;;;;28.00;25.75;;;;;;;;5085261;27;46201;-77
2021/09/22 10:38:38;;;;;;;;;32.50;26.50;;;;;;;;5090020;27;45903;-77
2021/09/22 10:41:03;;;;;;;;;21.00;20.25;;;;;;;;5090673;27;45507;-64
2021/09/22 10:43:29;;;;;;;;;25.00;21.67;;;;;;;;5095520;27;45762;-63
2021/09/22 10:46:00;;;;;;;;;28.00;25.00;;;;;;;;5084109;27;46922;-68
2021/09/22 10:48:26;;;;;;;;;28.50;21.25;;;;;;;;5089703;27;45731;-63
2021/09/22 10:50:52;;;;;;;;;18.50;18.00;;;;;;;;5089749;27;45638;-62
2021/09/22 10:53:32;;;;;;;;;19.50;19.50;;;;;;;;5090675;27;45613;-61
2021/09/22 10:56:01;;;;;;;;;35.50;24.50;;;;;;;;5082282;27;47127;-60
2021/09/22 10:58:31;;;;;;;;;27.00;21.25;;;;;;;;5093085;27;45838;-61
2021/09/22 11:00:56;;;;;;;;;22.50;21.50;;;;;;;;5087766;27;45464;-64
2021/09/22 11:03:41;;;;;;;;;25.00;20.33;;;;;;;;5086709;27;45501;-65
2021/09/22 11:06:27;;;;;;;;;22.00;21.00;;;;;;;;5078947;27;46115;-64
2021/09/22 11:09:02;;;;;;;;;23.00;18.75;;;;;;;;5087040;27;45800;-63
2021/09/22 11:11:47;;;;;;;;;22.00;17.25;;;;;;;;5089526;27;45590;-65
2021/09/22 11:14:31;;;;;;;;;25.25;18.00;;;;;;;;5089777;27;45669;-67
2021/09/22 11:16:59;;;;;;;;;17.00;15.50;;;;;;;;5090685;27;48595;-66
2021/09/22 11:19:25;;;;;;;;;16.75;15.50;;;;;;;;5091357;27;45535;-66
2021/09/22 11:21:51;;;;;;;;;23.50;18.75;;;;;;;;5086264;27;45539;-66
2021/09/22 11:24:21;;;;;;;;;16.00;15.50;;;;;;;;5085594;27;45525;-66
2021/09/22 11:26:50;;;;;;;;;20.50;18.00;;;;;;;;5092581;27;47140;-67
2021/09/22 11:29:28;;;;;;;;;16.75;14.50;;;;;;;;5083500;27;45728;-66
2021/09/22 11:31:54;;;;;;;;;14.25;14.25;;;;;;;;5085076;27;45455;-67
2021/09/22 11:34:45;;;;;;;;;15.75;15.75;;;;;;;;5093142;27;45534;-67
2021/09/22 11:37:14;;;;;;;;;14.25;13.00;;;;;;;;5089617;27;45585;-67
2021/09/22 11:39:41;;;;;;;;;32.50;29.25;;;;;;;;5094717;27;45905;-68
2021/09/22 11:42:07;;;;;;;;;30.50;28.25;;;;;;;;5092671;27;45539;-67
2021/09/22 11:44:33;;;;;;;;;23.50;20.75;;;;;;;;5091485;27;45542;-66
2021/09/22 11:47:00;;;;;;;;;19.25;17.25;;;;;;;;5093048;27;46277;-67
2021/09/22 11:49:35;;;;;;;;;10.25;10.25;;;;;;;;5096588;27;45775;-67
2021/09/22 11:52:06;;;;;;;;;14.75;12.75;;;;;;;;5088575;27;45506;-66
2021/09/22 11:54:34;;;;;;;;;14.75;13.00;;;;;;;;5094714;27;46004;-79
2021/09/22 11:57:03;;;;;;;;;14.75;14.25;;;;;;;;5107410;27;48773;-79
2021/09/22 11:59:35;;;;;;;;;12.75;12.75;;;;;;;;5094497;27;45653;-79
2021/09/22 12:02:01;;;;;;;;;10.50;10.00;;;;;;;;5092762;27;45565;-79
2021/09/22 12:04:30;;;;;;;;;12.50;11.25;;;;;;;;5098333;27;45799;-79
2021/09/22 12:06:56;;;;;;;;;10.75;9.00;;;;;;;;5098986;27;45402;-79
2021/09/22 12:09:21;;;;;;;;;11.00;11.00;;;;;;;;5093769;27;45475;-79
2021/09/22 12:11:46;;;;;;;;;13.67;11.67;;;;;;;;5094588;27;45516;-79
2021/09/22 12:14:25;;;;;;;;;12.00;10.33;;;;;;;;5088692;27;45832;-67
2021/09/22 12:17:03;;;;;;;;;20.75;18.75;;;;;;;;5093967;27;46736;-71
2021/09/22 12:19:28;;;;;;;;;24.00;24.00;;;;;;;;5088021;27;45757;-70
2021/09/22 12:21:54;;;;;;;;;15.25;15.25;;;;;;;;5088023;27;46187;-70
2021/09/22 12:24:20;;;;;;;;;11.00;10.00;;;;;;;;5095575;27;45469;-69
2021/09/22 12:26:52;;;;;;;;;12.00;11.50;;;;;;;;5092158;27;46339;-69
2021/09/22 12:29:17;;;;;;;;;32.50;29.50;;;;;;;;5094220;27;45538;-70
2021/09/22 12:31:43;;;;;;;;;14.00;11.50;;;;;;;;5094020;27;45472;-70
2021/09/22 12:34:15;;;;;;;;;18.75;18.25;;;;;;;;5095514;27;45436;-70
2021/09/22 12:36:43;;;;;;;;;19.50;15.50;;;;;;;;5095262;27;45610;-70
2021/09/22 12:39:13;;;;;;;;;11.25;11.25;;;;;;;;5088491;27;45366;-69
2021/09/22 12:41:38;;;;;;;;;15.00;11.25;;;;;;;;5094978;27;45370;-69
2021/09/22 12:44:03;;;;;;;;;11.25;9.75;;;;;;;;5090943;27;45509;-69
2021/09/22 12:46:37;;;;;;;;;10.00;8.75;;;;;;;;5100836;27;46128;-69
2021/09/22 12:49:16;;;;;;;;;9.50;8.50;;;;;;;;5093580;27;45710;-70
2021/09/22 12:51:48;;;;;;;;;13.25;11.25;;;;;;;;5089684;27;45651;-70
2021/09/22 12:54:15;;;;;;;;;9.50;7.75;;;;;;;;5097085;27;45536;-71
2021/09/22 12:56:41;;;;;;;;;8.75;8.25;;;;;;;;5098937;27;45503;-68
2021/09/22 12:59:18;;;;;;;;;10.00;9.00;;;;;;;;5102391;27;45491;-78
2021/09/22 13:01:50;;;;;;;;;10.50;9.75;;;;;;;;5099170;27;45810;-78
2021/09/22 13:04:25;;;;;;;;;10.25;7.00;;;;;;;;5103987;27;45882;-78
2021/09/22 13:06:54;;;;;;;;;8.00;6.75;;;;;;;;5097309;27;45647;-79
2021/09/22 13:09:30;;;;;;;;;7.50;7.50;;;;;;;;5100479;27;45745;-78
2021/09/22 13:11:55;;;;;;;;;7.25;7.25;;;;;;;;5090346;27;45455;-79
2021/09/22 13:14:20;;;;;;;;;8.25;8.25;;;;;;;;5097654;27;45348;-78
2021/09/22 13:16:50;;;;;;;;;10.50;7.50;;;;;;;;5100482;27;45664;-78
2021/09/22 13:19:16;;;;;;;;;12.50;7.25;;;;;;;;5105602;27;45457;-79
2021/09/22 13:21:42;;;;;;;;;7.75;7.75;;;;;;;;5102618;27;45482;-78
2021/09/22 13:24:09;;;;;;;;;7.50;6.00;;;;;;;;5100151;27;45559;-78
2021/09/22 13:26:35;;;;;;;;;9.75;9.00;;;;;;;;5097821;27;45451;-78
2021/09/22 13:29:02;;;;;;;;;9.50;9.00;;;;;;;;5106829;27;45666;-78
2021/09/22 13:31:28;;;;;;;;;10.25;7.25;;;;;;;;5100696;27;45579;-78
2021/09/22 13:33:53;;;;;;;;;8.75;6.50;;;;;;;;5099000;27;45509;-78
2021/09/22 13:36:18;;;;;;;;;9.25;8.00;;;;;;;;5095924;27;47818;-78
2021/09/22 13:38:44;;;;;;;;;11.25;9.00;;;;;;;;5096726;27;45492;-78
2021/09/22 13:41:09;;;;;;;;;11.25;8.25;;;;;;;;5096689;27;45460;-78
2021/09/22 13:43:35;;;;;;;;;8.00;8.00;;;;;;;;5102360;27;45431;-78
2021/09/22 13:46:01;;;;;;;;;7.00;7.00;;;;;;;;5099034;27;48322;-78
2021/09/22 13:48:26;;;;;;;;;8.50;6.50;;;;;;;;5098719;27;45787;-78
2021/09/22 13:50:52;;;;;;;;;9.50;9.00;;;;;;;;5093667;27;45525;-78
2021/09/22 13:53:18;;;;;;;;;10.50;8.00;;;;;;;;5112201;27;45432;-78
2021/09/22 13:55:44;;;;;;;;;9.75;6.50;;;;;;;;5105480;27;45723;-78
2021/09/22 13:58:10;;;;;;;;;6.00;5.25;;;;;;;;5096060;27;45736;-78
2021/09/22 14:00:35;;;;;;;;;9.25;6.25;;;;;;;;5102846;27;45524;-78
2021/09/22 14:03:00;;;;;;;;;6.00;6.00;;;;;;;;5099186;27;45542;-78
2021/09/22 14:05:26;;;;;;;;;7.00;5.00;;;;;;;;5097251;27;45418;-78
2021/09/22 14:07:51;;;;;;;;;7.67;6.00;;;;;;;;5095900;27;45587;-77
2021/09/22 14:10:16;;;;;;;;;4.50;4.50;;;;;;;;5098136;27;45629;-78
2021/09/22 14:12:41;;;;;;;;;6.00;5.33;;;;;;;;5093278;27;45426;-78
2021/09/22 14:15:07;;;;;;;;;7.25;7.25;;;;;;;;5093118;27;46522;-78